Airfield :
LOGIN :

Register | Disclaimer

   EN    FR    IT 

 










Legend :    VFR   Marginal VFR   IFR   Intensive IFR   Very Intensive IFR
Visi :
Ceiling :
>= 8 km
>= 3000ft
5 to 8 km
1000 to 3000 ft
1500m to 5 km
500 to 1000 ft
800 to 1500m
200 to 500 ft
< 800m
< 200 ft
Symbols :   Thunderstorms  Fog  Heavy snow  Heavy precipitations  Wind > 20 kt
SIGMETs :     Misc.  Thunderstorms  Icing  Turbulence  Mountain Waves  Volcanic Ashes






- Airport Elevation : 228 ft
- IATA code : OPO


LPPR - Porto Fr. Sa Carneiro

CURRENT METAR :
  • 051930Z 35009KT CAVOK 25/17 Q1017

EXPIRED METARs :
  • 051900Z 34011KT CAVOK 26/17 Q1017
  • 051830Z 28003KT 240V310 CAVOK 26/17 Q1017
  • 051800Z 32006KT 280V350 CAVOK 27/18 Q1017
  • 051730Z 32006KT 280V350 CAVOK 26/17 Q1017
  • 051700Z 33008KT CAVOK 26/17 Q1017

TAF TAF LPPR
Valid from the 05 at 18:00 until the 06 at 18:00 UTC


051700Z 0518/0618 34010KT CAVOK
BECMG 0521/0524 VRB02KT
PROB30
TEMPO 0600/0608 5000 BR SCT005
BECMG 0609/0612 34010KT



MET'MAP, your aeronautical weather chart ! - Copyright ORBIFLY December 2007 - Disclaimer

ORBIFLY MET'MAP TEAM :

Programming & Development : Alexandra Zaïnal
Concept & original design : Baudouin d'Aumeries
Assistance for programming : Marc-Olivier Méhu
Technical & hardware support : Manuel Goepfert

Contact : metmap@orbifly.com




SOURCES & CREDITS :

   NOAA